Time;durP1;ratioP1;P1;durP2;ratioP2;P2;SDS_P1;SDS_P2;PMS_P1;PMS_P2;Temp;Humidity;BMP_temperature;BMP_pressure;BME280_temperature;BME280_humidity;BME280_pressure;Samples;Min_cycle;Max_cycle;Signal;HPM_P1;HPM_P2
2024/01/10 00:00:15;;;;;;;77.57;26.40;;;-3.80;99.90;;;;;;4935217;29;20044;-66
2024/01/10 00:02:42;;;;;;;74.45;25.42;;;-3.90;99.90;;;;;;4946492;29;20417;-66
2024/01/10 00:05:08;;;;;;;74.13;25.05;;;-3.90;99.90;;;;;;4952539;28;20412;-66
2024/01/10 00:07:36;;;;;;;68.97;24.45;;;-3.90;99.90;;;;;;4954058;28;20085;-66
2024/01/10 00:10:04;;;;;;;67.88;25.67;;;-3.90;99.90;;;;;;4947571;28;20071;-66
2024/01/10 00:12:35;;;;;;;71.85;24.90;;;-4.00;99.90;;;;;;4955523;29;20057;-66
2024/01/10 00:15:04;;;;;;;72.60;24.80;;;-4.00;99.90;;;;;;4952493;28;20419;-66
2024/01/10 00:17:31;;;;;;;66.28;25.73;;;-4.10;99.90;;;;;;4954029;29;20047;-66
2024/01/10 00:19:58;;;;;;;67.75;24.77;;;-4.00;99.90;;;;;;4955458;29;20054;-66
2024/01/10 00:22:25;;;;;;;71.95;26.35;;;-4.10;99.90;;;;;;4955557;29;20051;-66
2024/01/10 00:24:51;;;;;;;75.35;27.13;;;-4.10;99.90;;;;;;4954036;28;20047;-66
2024/01/10 00:27:18;;;;;;;76.95;25.70;;;-4.00;99.90;;;;;;4955415;29;20058;-66
2024/01/10 00:29:45;;;;;;;68.72;24.92;;;-4.00;99.90;;;;;;4954416;29;20039;-66
2024/01/10 00:32:12;;;;;;;80.18;26.67;;;-4.00;99.90;;;;;;4955593;29;20047;-66
2024/01/10 00:34:39;;;;;;;72.30;25.45;;;-4.00;99.90;;;;;;4952727;28;20055;-66
2024/01/10 00:37:05;;;;;;;79.72;25.95;;;-4.00;99.90;;;;;;4955288;29;20051;-66
2024/01/10 00:39:32;;;;;;;71.45;25.35;;;-4.00;99.90;;;;;;4947585;29;20039;-66
2024/01/10 00:41:59;;;;;;;73.68;26.67;;;-4.00;99.90;;;;;;4955434;29;20043;-66
2024/01/10 00:44:26;;;;;;;72.68;24.75;;;-4.00;99.90;;;;;;4951437;29;20127;-66
2024/01/10 00:46:53;;;;;;;70.53;23.63;;;-4.00;99.90;;;;;;4955647;29;20054;-66
2024/01/10 00:49:20;;;;;;;;;;;-3.90;99.90;;;;;;4953723;29;20055;-66
2024/01/10 00:51:47;;;;;;;53.83;18.48;;;-3.90;99.90;;;;;;4962162;28;20467;-66
2024/01/10 00:54:14;;;;;;;71.53;24.92;;;-4.00;99.90;;;;;;4943631;28;20044;-66
2024/01/10 00:56:41;;;;;;;67.97;22.00;;;-4.10;99.90;;;;;;4951643;29;20053;-66
2024/01/10 00:59:07;;;;;;;72.47;25.08;;;-4.20;99.90;;;;;;4951480;29;20054;-66
2024/01/10 01:01:34;;;;;;;67.35;23.33;;;-4.20;99.90;;;;;;4955270;29;20050;-66
2024/01/10 01:04:02;;;;;;;65.95;24.17;;;-4.20;99.90;;;;;;4951968;28;20103;-66
2024/01/10 01:06:28;;;;;;;;;;;-4.20;99.90;;;;;;4955616;29;20043;-66
2024/01/10 01:08:55;;;;;;;67.45;23.45;;;-4.10;99.90;;;;;;4954644;29;19922;-66
2024/01/10 01:11:22;;;;;;;65.35;24.23;;;-4.10;99.90;;;;;;4946910;29;20053;-66
2024/01/10 01:13:49;;;;;;;72.22;23.65;;;-4.10;99.90;;;;;;4947134;28;20477;-66
2024/01/10 01:16:16;;;;;;;66.68;24.23;;;-4.10;99.90;;;;;;4962372;28;20046;-66
2024/01/10 01:18:45;;;;;;;70.43;23.77;;;-4.20;99.90;;;;;;4954026;28;20118;-66
2024/01/10 01:21:12;;;;;;;65.38;23.80;;;-4.20;99.90;;;;;;4945559;29;20117;-66
2024/01/10 01:23:39;;;;;;;64.90;24.45;;;-4.30;99.90;;;;;;4954943;28;20035;-66
2024/01/10 01:26:08;;;;;;;60.47;23.35;;;-4.30;99.90;;;;;;4943789;29;20682;-66
2024/01/10 01:28:35;;;;;;;65.72;23.02;;;-4.40;99.90;;;;;;4954556;29;20066;-66
2024/01/10 01:31:02;;;;;;;64.65;23.55;;;-4.40;99.90;;;;;;4953559;29;20071;-66
2024/01/10 01:33:29;;;;;;;;;;;-4.30;99.90;;;;;;4948844;28;20394;-66
2024/01/10 01:35:56;;;;;;;65.10;21.90;;;-4.30;99.90;;;;;;4950045;28;20017;-66
2024/01/10 01:38:23;;;;;;;65.18;22.38;;;-4.20;99.90;;;;;;4950192;29;20051;-66
2024/01/10 01:40:50;;;;;;;69.82;23.75;;;-4.20;99.90;;;;;;4950914;29;20045;-66
2024/01/10 01:43:24;;;;;;;72.53;22.98;;;-4.20;99.90;;;;;;4954634;29;20039;-66
2024/01/10 01:45:56;;;;;;;73.55;25.73;;;-4.10;99.90;;;;;;4953308;29;20047;-66
2024/01/10 01:48:24;;;;;;;72.80;24.00;;;-4.20;99.90;;;;;;4947309;29;20122;-68
2024/01/10 01:50:59;;;;;;;67.65;22.65;;;-4.20;99.90;;;;;;4953670;29;20083;-66
2024/01/10 01:53:28;;;;;;;67.28;22.55;;;-4.10;99.90;;;;;;4954036;28;20039;-66
2024/01/10 01:55:55;;;;;;;66.43;23.15;;;-4.10;99.90;;;;;;4944668;29;20497;-66
2024/01/10 01:58:23;;;;;;;68.60;23.13;;;-4.10;99.90;;;;;;4949093;29;20043;-66
2024/01/10 02:00:50;;;;;;;65.57;24.45;;;-4.10;99.90;;;;;;4947722;28;20050;-66
2024/01/10 02:03:17;;;;;;;;;;;-4.10;99.90;;;;;;4947065;28;20083;-66
2024/01/10 02:05:43;;;;;;;66.80;22.35;;;-4.00;99.90;;;;;;4953125;28;19926;-66
2024/01/10 02:08:10;;;;;;;59.13;21.55;;;-4.00;99.90;;;;;;4945378;29;20085;-66
2024/01/10 02:10:37;;;;;;;63.55;22.35;;;-4.00;99.90;;;;;;4947489;29;20386;-66
2024/01/10 02:13:05;;;;;;;58.65;22.08;;;-4.00;99.90;;;;;;4952266;29;20131;-66
2024/01/10 02:15:32;;;;;;;66.45;22.50;;;-4.00;99.90;;;;;;4952245;28;20568;-66
2024/01/10 02:17:59;;;;;;;62.92;23.20;;;-4.00;99.90;;;;;;4952019;29;20043;-66
2024/01/10 02:20:26;;;;;;;;;;;-4.00;99.90;;;;;;4954153;29;20102;-66
2024/01/10 02:22:53;;;;;;;56.85;21.40;;;-4.00;99.90;;;;;;4948280;29;19989;-66
2024/01/10 02:25:21;;;;;;;61.22;22.67;;;-4.10;99.90;;;;;;4954081;28;20480;-66
2024/01/10 02:27:48;;;;;;;58.38;21.55;;;-4.10;99.90;;;;;;4952546;29;20116;-66
2024/01/10 02:30:15;;;;;;;65.45;24.17;;;-4.20;99.90;;;;;;4959458;28;20043;-66
2024/01/10 02:32:42;;;;;;;65.60;23.95;;;-4.10;99.90;;;;;;4946287;29;20039;-66
2024/01/10 02:35:09;;;;;;;59.45;22.48;;;-4.10;99.90;;;;;;4952995;28;20058;-66
2024/01/10 02:37:36;;;;;;;;;;;-4.10;99.90;;;;;;4948450;29;20047;-66
2024/01/10 02:40:03;;;;;;;59.53;20.83;;;-4.10;99.90;;;;;;4945741;29;20428;-66
2024/01/10 02:42:32;;;;;;;62.38;21.40;;;-4.10;99.90;;;;;;4945362;29;20053;-66
2024/01/10 02:44:59;;;;;;;63.95;23.20;;;-4.10;99.90;;;;;;4953157;28;20050;-66
2024/01/10 02:47:26;;;;;;;63.85;22.23;;;-4.10;99.90;;;;;;4945667;29;20054;-66
2024/01/10 02:49:53;;;;;;;;;;;-4.10;99.90;;;;;;4946944;29;20098;-66
2024/01/10 02:52:20;;;;;;;59.45;22.02;;;-4.10;99.90;;;;;;4948257;29;19930;-66
2024/01/10 02:54:46;;;;;;;63.92;22.95;;;-4.20;99.90;;;;;;4946387;28;20044;-66
2024/01/10 02:57:13;;;;;;;62.35;22.80;;;-4.20;99.90;;;;;;4951401;29;20082;-66
2024/01/10 02:59:40;;;;;;;65.63;23.25;;;-4.20;99.90;;;;;;4953466;29;20038;-66
2024/01/10 03:02:07;;;;;;;58.17;21.63;;;-4.20;99.90;;;;;;4946789;29;20051;-66
2024/01/10 03:04:34;;;;;;;60.60;22.05;;;-4.30;99.90;;;;;;4942243;28;20401;-66
2024/01/10 03:07:00;;;;;;;57.33;21.05;;;-4.30;99.90;;;;;;4942555;29;20040;-66
2024/01/10 03:09:27;;;;;;;63.60;21.77;;;-4.20;99.90;;;;;;4944762;29;20066;-66
2024/01/10 03:11:54;;;;;;;63.95;21.02;;;-4.30;99.90;;;;;;4935705;29;20085;-66
2024/01/10 03:14:22;;;;;;;59.45;21.80;;;-4.30;99.90;;;;;;4960713;28;20133;-66
2024/01/10 03:16:49;;;;;;;58.08;21.58;;;-4.30;99.90;;;;;;4952824;28;20035;-66
2024/01/10 03:19:16;;;;;;;56.55;20.73;;;-4.30;99.90;;;;;;4951521;29;20409;-66
2024/01/10 03:21:42;;;;;;;60.92;21.13;;;-4.30;99.90;;;;;;4951573;28;20039;-66
2024/01/10 03:24:09;;;;;;;55.72;21.35;;;-4.30;99.90;;;;;;4953194;28;20049;-66
2024/01/10 03:26:36;;;;;;;57.50;20.95;;;-4.40;99.90;;;;;;4951620;29;20392;-66
2024/01/10 03:29:03;;;;;;;63.78;22.23;;;-4.30;99.90;;;;;;4952905;29;20051;-66
2024/01/10 03:31:30;;;;;;;62.60;21.85;;;-4.30;99.90;;;;;;4950689;29;20051;-66
2024/01/10 03:33:58;;;;;;;57.40;21.83;;;-4.30;99.90;;;;;;4945694;28;20111;-66
2024/01/10 03:36:25;;;;;;;64.90;21.40;;;-4.40;99.90;;;;;;4948956;29;20126;-66
2024/01/10 03:38:52;;;;;;;61.08;21.98;;;-4.30;99.90;;;;;;4947764;29;20134;-66
2024/01/10 03:41:20;;;;;;;58.92;20.98;;;-4.40;99.90;;;;;;4945513;29;20043;-66
2024/01/10 03:43:47;;;;;;;70.97;23.80;;;-4.30;99.90;;;;;;4945183;28;20055;-66
2024/01/10 03:46:15;;;;;;;;;;;-4.40;99.90;;;;;;4947191;29;20047;-66
2024/01/10 03:48:50;;;;;;;44.03;15.73;;;-4.40;99.90;;;;;;4956506;29;20319;-66
2024/01/10 03:51:18;;;;;;;54.53;20.70;;;-4.40;99.90;;;;;;4956320;29;20520;-66
2024/01/10 03:53:45;;;;;;;66.57;21.52;;;-4.40;99.90;;;;;;4955938;28;20047;-66
2024/01/10 03:56:12;;;;;;;;;;;-4.40;99.90;;;;;;4957178;29;20047;-66
2024/01/10 03:58:39;;;;;;;61.28;20.88;;;-4.30;99.90;;;;;;4951850;29;19930;-66
2024/01/10 04:01:07;;;;;;;56.72;22.25;;;-4.30;99.90;;;;;;4952081;28;20051;-67
2024/01/10 04:03:35;;;;;;;64.97;22.40;;;-4.30;99.90;;;;;;4956499;28;20051;-66
2024/01/10 04:06:02;;;;;;;64.15;24.05;;;-4.30;99.90;;;;;;4948129;29;20122;-66
2024/01/10 04:08:29;;;;;;;63.60;22.40;;;-4.30;99.90;;;;;;4956121;29;20432;-66
2024/01/10 04:10:57;;;;;;;59.45;22.00;;;-4.30;99.90;;;;;;4941572;29;20382;-66
2024/01/10 04:13:24;;;;;;;65.13;21.73;;;-4.30;99.90;;;;;;4958081;28;20155;-66
2024/01/10 04:15:52;;;;;;;70.72;21.98;;;-4.20;99.90;;;;;;4960386;28;20075;-66
2024/01/10 04:18:18;;;;;;;60.85;21.52;;;-4.20;99.90;;;;;;4954827;29;20043;-66
2024/01/10 04:20:45;;;;;;;63.67;20.95;;;-4.30;99.90;;;;;;4955650;28;20043;-66
2024/01/10 04:23:12;;;;;;;63.10;22.88;;;-4.30;99.90;;;;;;4946744;29;20087;-66
2024/01/10 04:25:39;;;;;;;59.63;22.65;;;-4.30;99.90;;;;;;4949290;29;20044;-66
2024/01/10 04:28:06;;;;;;;67.70;23.38;;;-4.30;99.90;;;;;;4952487;29;20047;-66
2024/01/10 04:30:33;;;;;;;57.88;20.88;;;-4.30;99.90;;;;;;4955399;29;20370;-66
2024/01/10 04:33:00;;;;;;;62.05;22.88;;;-4.30;99.90;;;;;;4955415;29;20051;-66
2024/01/10 04:35:27;;;;;;;69.55;22.25;;;-4.30;99.90;;;;;;4947640;28;20071;-66
2024/01/10 04:37:53;;;;;;;72.40;22.35;;;-4.20;99.90;;;;;;4947703;29;20066;-66
2024/01/10 04:40:20;;;;;;;57.05;20.52;;;-4.20;99.90;;;;;;4954973;29;20135;-66
2024/01/10 04:42:47;;;;;;;63.78;23.27;;;-4.10;99.90;;;;;;4950403;29;20040;-66
2024/01/10 04:45:14;;;;;;;64.30;23.17;;;-4.10;99.90;;;;;;4941753;28;20505;-66
2024/01/10 04:47:41;;;;;;;59.67;21.88;;;-4.10;99.90;;;;;;4955859;29;20095;-66
2024/01/10 04:50:08;;;;;;;;;;;-4.10;99.90;;;;;;4953507;29;20058;-66
2024/01/10 04:52:39;;;;;;;67.55;22.05;;;-4.20;99.90;;;;;;4945031;28;19930;-66
2024/01/10 04:55:07;;;;;;;63.45;22.13;;;-4.10;99.90;;;;;;4951138;28;20488;-66
2024/01/10 04:57:35;;;;;;;65.13;23.15;;;-4.10;99.90;;;;;;4952519;29;20392;-66
2024/01/10 05:00:04;;;;;;;55.38;20.00;;;-4.10;99.90;;;;;;4945770;29;20063;-66
2024/01/10 05:02:31;;;;;;;68.97;23.58;;;-4.00;99.90;;;;;;4946726;29;20035;-66
2024/01/10 05:04:58;;;;;;;68.55;21.90;;;-4.00;99.90;;;;;;4947316;29;20112;-66
2024/01/10 05:07:26;;;;;;;71.00;23.88;;;-4.10;99.90;;;;;;4952302;29;20043;-66
2024/01/10 05:09:53;;;;;;;68.32;23.25;;;-4.10;99.90;;;;;;4946986;29;20465;-66
2024/01/10 05:12:20;;;;;;;66.63;22.45;;;-4.10;99.90;;;;;;4954597;28;20053;-66
2024/01/10 05:14:46;;;;;;;71.15;23.38;;;-4.20;99.90;;;;;;4954387;28;20039;-66
2024/01/10 05:17:13;;;;;;;61.60;23.67;;;-4.20;99.90;;;;;;4934100;29;20047;-66
2024/01/10 05:19:40;;;;;;;;;;;-4.20;99.90;;;;;;4953803;29;20070;-66
2024/01/10 05:22:07;;;;;;;69.97;22.33;;;-4.20;99.90;;;;;;4954400;29;20287;-66
2024/01/10 05:24:35;;;;;;;62.67;21.17;;;-4.20;99.90;;;;;;4944662;28;20043;-66
2024/01/10 05:27:02;;;;;;;63.25;20.92;;;-4.20;99.90;;;;;;4953408;29;20401;-66
2024/01/10 05:29:29;;;;;;;64.85;20.35;;;-4.10;99.90;;;;;;4947415;29;20421;-66
2024/01/10 05:31:56;;;;;;;64.60;21.83;;;-4.10;99.90;;;;;;4952645;29;20046;-66
2024/01/10 05:34:23;;;;;;;63.47;21.65;;;-4.10;99.90;;;;;;4945532;28;20106;-66
2024/01/10 05:36:50;;;;;;;63.58;20.88;;;-4.10;99.90;;;;;;4953550;28;20050;-66
2024/01/10 05:39:18;;;;;;;61.28;21.25;;;-4.20;99.90;;;;;;4947649;29;20046;-66
2024/01/10 05:41:45;;;;;;;60.33;19.75;;;-4.20;99.90;;;;;;4951584;28;20043;-67
2024/01/10 05:44:13;;;;;;;64.05;22.58;;;-4.20;99.90;;;;;;4953038;28;20051;-66
2024/01/10 05:46:41;;;;;;;69.40;22.48;;;-4.30;99.90;;;;;;4940663;29;20050;-66
2024/01/10 05:49:09;;;;;;;63.17;21.70;;;-4.30;99.90;;;;;;4962352;28;20556;-66
2024/01/10 05:51:37;;;;;;;57.72;20.98;;;-4.20;99.90;;;;;;4964154;28;20066;-66
2024/01/10 05:54:04;;;;;;;60.92;21.50;;;-4.20;99.90;;;;;;4951932;28;20044;-66
2024/01/10 05:56:31;;;;;;;58.35;21.42;;;-4.20;99.90;;;;;;4963007;28;20071;-66
2024/01/10 05:58:58;;;;;;;61.30;21.05;;;-4.20;99.90;;;;;;4952549;29;20059;-66
2024/01/10 06:01:25;;;;;;;57.97;21.27;;;-4.20;99.90;;;;;;4951729;28;20039;-66
2024/01/10 06:03:52;;;;;;;55.22;20.70;;;-4.20;99.90;;;;;;4958106;28;20046;-66
2024/01/10 06:06:19;;;;;;;60.35;21.48;;;-4.20;99.90;;;;;;4971600;28;20050;-66
2024/01/10 06:08:45;;;;;;;57.45;20.20;;;-4.20;99.90;;;;;;4954108;29;20094;-66
2024/01/10 06:11:12;;;;;;;63.35;22.58;;;-4.20;99.90;;;;;;4951843;29;20039;-66
2024/01/10 06:13:39;;;;;;;61.72;21.98;;;-4.20;99.90;;;;;;4945528;28;20091;-66
2024/01/10 06:16:20;;;;;;;56.28;21.40;;;-4.20;99.90;;;;;;4932300;29;20409;-66
2024/01/10 06:18:47;;;;;;;;;;;-4.20;99.90;;;;;;4954307;29;20043;-66
2024/01/10 06:21:14;;;;;;;53.17;20.42;;;-4.10;99.90;;;;;;4952013;29;19926;-66
2024/01/10 06:23:40;;;;;;;63.45;21.60;;;-4.10;99.90;;;;;;4953892;28;20396;-66
2024/01/10 06:26:07;;;;;;;53.35;18.05;;;-4.10;99.90;;;;;;4942548;28;20078;-68
2024/01/10 06:28:34;;;;;;;56.88;20.00;;;-4.10;99.90;;;;;;4960352;28;20062;-67
2024/01/10 06:31:01;;;;;;;58.10;21.42;;;-4.20;99.90;;;;;;4952723;28;20122;-67
2024/01/10 06:33:28;;;;;;;62.80;21.08;;;-4.20;99.90;;;;;;4945276;28;20548;-67
2024/01/10 06:35:55;;;;;;;61.97;23.25;;;-4.20;99.90;;;;;;4951923;29;20043;-67
2024/01/10 06:38:22;;;;;;;66.57;22.55;;;-4.20;99.90;;;;;;4952229;28;20134;-67
2024/01/10 06:40:50;;;;;;;53.63;19.73;;;-4.20;99.90;;;;;;4935760;29;20058;-67
2024/01/10 06:43:17;;;;;;;47.55;18.23;;;-4.20;99.90;;;;;;4947045;29;20043;-67
2024/01/10 06:45:44;;;;;;;47.90;17.60;;;-4.30;99.90;;;;;;4935178;29;20039;-67
2024/01/10 06:48:12;;;;;;;45.20;17.17;;;-4.40;99.90;;;;;;4950084;29;20054;-67
2024/01/10 06:50:39;;;;;;;47.08;17.70;;;-4.50;99.90;;;;;;4949657;29;20444;-67
2024/01/10 06:53:07;;;;;;;;;;;-4.60;99.90;;;;;;4952665;29;20054;-68
2024/01/10 06:55:34;;;;;;;49.45;16.27;;;-4.80;99.90;;;;;;4951003;28;19923;-67
2024/01/10 06:58:01;;;;;;;40.30;14.98;;;-4.80;99.90;;;;;;4950110;29;20061;-67
2024/01/10 07:00:28;;;;;;;47.33;15.95;;;-5.00;99.90;;;;;;4950482;28;20043;-67
2024/01/10 07:02:54;;;;;;;42.30;15.27;;;-5.00;99.90;;;;;;4944459;29;20437;-67
2024/01/10 07:05:21;;;;;;;44.50;15.85;;;-5.10;99.90;;;;;;4951740;28;20492;-67
2024/01/10 07:07:49;;;;;;;39.97;14.65;;;-5.10;99.90;;;;;;4951965;29;20047;-67
2024/01/10 07:10:16;;;;;;;46.97;17.58;;;-5.00;99.90;;;;;;4949855;29;20050;-67
2024/01/10 07:12:43;;;;;;;47.85;15.90;;;-5.00;99.90;;;;;;4950773;28;20047;-67
2024/01/10 07:15:11;;;;;;;56.80;18.10;;;-5.00;99.90;;;;;;4950215;28;20049;-67
2024/01/10 07:17:39;;;;;;;52.42;16.80;;;-5.00;99.90;;;;;;4952236;28;20039;-67
2024/01/10 07:20:07;;;;;;;49.00;16.27;;;-5.10;99.90;;;;;;4957393;28;20043;-67
2024/01/10 07:22:34;;;;;;;47.03;17.00;;;-5.00;99.90;;;;;;4953993;29;20039;-67
2024/01/10 07:25:02;;;;;;;42.95;15.85;;;-4.90;99.90;;;;;;4956103;28;20049;-67
2024/01/10 07:27:29;;;;;;;42.70;14.63;;;-4.90;99.90;;;;;;4953231;28;20047;-67
2024/01/10 07:29:57;;;;;;;38.00;13.73;;;-4.90;99.90;;;;;;4952101;29;20079;-67
2024/01/10 07:32:24;;;;;;;43.17;15.93;;;-4.90;99.90;;;;;;4944555;29;20547;-67
2024/01/10 07:34:51;;;;;;;;;;;-4.90;99.90;;;;;;4944714;29;20059;-67
2024/01/10 07:37:20;;;;;;;40.55;15.63;;;-4.90;99.90;;;;;;4955273;29;19922;-67
2024/01/10 07:39:47;;;;;;;43.72;14.80;;;-4.90;99.90;;;;;;4955838;29;20058;-67
2024/01/10 07:42:14;;;;;;;40.90;15.60;;;-5.20;99.90;;;;;;4951102;29;20078;-67
2024/01/10 07:44:41;;;;;;;44.80;15.38;;;-5.30;99.90;;;;;;4952385;28;20047;-67
2024/01/10 07:47:11;;;;;;;38.25;14.93;;;-5.20;99.90;;;;;;4943847;29;20134;-68
2024/01/10 07:49:38;;;;;;;46.47;16.48;;;-5.20;99.90;;;;;;4955864;29;20078;-68
2024/01/10 07:52:05;;;;;;;38.35;15.23;;;-5.00;99.90;;;;;;4956342;28;20075;-68
2024/01/10 07:54:31;;;;;;;;;;;-5.00;99.90;;;;;;4953577;28;20085;-68
2024/01/10 07:56:58;;;;;;;34.03;14.00;;;-4.90;99.90;;;;;;4951957;29;19926;-68
2024/01/10 07:59:25;;;;;;;39.70;15.38;;;-5.00;99.90;;;;;;4952781;29;20047;-68
2024/01/10 08:01:56;;;;;;;39.65;15.45;;;-4.90;99.90;;;;;;4939724;29;20058;-67
2024/01/10 08:04:24;;;;;;;39.65;13.88;;;-4.90;99.90;;;;;;4944805;28;20039;-68
2024/01/10 08:06:51;;;;;;;38.65;15.73;;;-4.90;99.90;;;;;;4952303;28;20415;-67
2024/01/10 08:09:19;;;;;;;43.38;16.65;;;-4.90;99.90;;;;;;4937308;29;20543;-68
2024/01/10 08:11:46;;;;;;;47.53;16.73;;;-4.80;99.90;;;;;;4954326;29;20040;-68
2024/01/10 08:14:12;;;;;;;;;;;-4.80;99.90;;;;;;4955713;28;20057;-68
2024/01/10 08:16:39;;;;;;;40.58;15.35;;;-4.90;99.90;;;;;;4951813;29;20021;-67
2024/01/10 08:19:07;;;;;;;44.35;16.85;;;-5.00;99.90;;;;;;4955690;29;20050;-67
2024/01/10 08:21:34;;;;;;;44.47;17.05;;;-4.90;99.90;;;;;;4955163;29;20055;-68
2024/01/10 08:24:02;;;;;;;48.85;17.80;;;-4.70;99.90;;;;;;4954036;28;20035;-67
2024/01/10 08:26:30;;;;;;;51.85;17.85;;;-4.70;99.90;;;;;;4955795;29;20043;-67
2024/01/10 08:28:57;;;;;;;55.92;17.67;;;-4.70;99.90;;;;;;4942082;29;20047;-67
2024/01/10 08:31:24;;;;;;;50.58;18.65;;;-4.60;99.90;;;;;;4949783;29;20493;-67
2024/01/10 08:33:51;;;;;;;57.85;20.50;;;-4.60;99.90;;;;;;4947199;29;20059;-68
2024/01/10 08:36:17;;;;;;;54.38;22.25;;;-4.40;99.90;;;;;;4955433;29;20118;-67
2024/01/10 08:38:44;;;;;;;55.58;20.17;;;-4.20;99.90;;;;;;4953226;28;20126;-67
2024/01/10 08:41:12;;;;;;;54.47;21.83;;;-4.20;99.90;;;;;;4954579;29;20054;-67
2024/01/10 08:43:39;;;;;;;64.50;20.15;;;-4.10;99.90;;;;;;4954785;28;20035;-68
2024/01/10 08:46:06;;;;;;;62.75;21.42;;;-4.00;99.90;;;;;;4947998;28;20054;-68
2024/01/10 08:48:33;;;;;;;55.17;19.48;;;-3.90;99.90;;;;;;4938080;29;20099;-67
2024/01/10 08:51:00;;;;;;;52.90;19.27;;;-3.80;99.90;;;;;;4953995;29;20103;-67
2024/01/10 08:53:27;;;;;;;53.63;20.70;;;-3.70;99.90;;;;;;4953100;28;20051;-68
2024/01/10 08:55:55;;;;;;;50.90;20.67;;;-3.60;99.90;;;;;;4940632;29;20050;-67
2024/01/10 08:58:22;;;;;;;56.40;21.23;;;-3.60;99.90;;;;;;4955021;28;20461;-68
2024/01/10 09:00:49;;;;;;;59.70;22.55;;;-3.50;99.90;;;;;;4950237;28;20050;-68
2024/01/10 09:03:15;;;;;;;50.05;21.30;;;-3.40;99.90;;;;;;4949288;28;20075;-68
2024/01/10 09:05:42;;;;;;;61.28;22.33;;;-3.30;99.90;;;;;;4952475;29;20047;-67
2024/01/10 09:08:22;;;;;;;59.20;22.75;;;-3.40;99.90;;;;;;4954490;29;20058;-67
2024/01/10 09:10:49;;;;;;;49.78;20.65;;;-3.50;99.90;;;;;;4947963;29;20055;-67
2024/01/10 09:13:17;;;;;;;59.13;20.10;;;-3.60;99.90;;;;;;4949079;29;20043;-67
2024/01/10 09:15:44;;;;;;;55.70;20.45;;;-3.80;99.90;;;;;;4954585;28;20051;-67
2024/01/10 09:18:11;;;;;;;62.10;22.13;;;-3.80;99.90;;;;;;4937369;29;20051;-67
2024/01/10 09:20:38;;;;;;;;;;;-3.80;99.90;;;;;;4946914;29;20070;-67
2024/01/10 09:23:05;;;;;;;46.47;15.10;;;-3.80;99.90;;;;;;4937248;29;19926;-67
2024/01/10 09:25:32;;;;;;;53.78;20.13;;;-3.80;99.90;;;;;;4950115;28;20097;-67
2024/01/10 09:27:59;;;;;;;53.65;19.42;;;-3.70;99.90;;;;;;4954198;29;20476;-68
2024/01/10 09:30:25;;;;;;;58.55;20.27;;;-3.60;99.90;;;;;;4953893;29;20051;-67
2024/01/10 09:32:52;;;;;;;55.22;19.38;;;-3.60;99.90;;;;;;4954243;29;20078;-68
2024/01/10 09:35:19;;;;;;;55.85;21.45;;;-3.70;99.90;;;;;;4952397;28;20047;-67
2024/01/10 09:37:46;;;;;;;59.05;21.85;;;-3.70;99.90;;;;;;4953914;28;20074;-68
2024/01/10 09:40:15;;;;;;;54.60;21.33;;;-3.60;99.90;;;;;;4949266;28;20070;-68
2024/01/10 09:42:44;;;;;;;54.85;22.13;;;-3.60;99.90;;;;;;4954303;29;20031;-67
2024/01/10 09:45:12;;;;;;;61.35;21.13;;;-3.50;99.90;;;;;;4950157;28;20043;-68
2024/01/10 09:47:42;;;;;;;55.33;20.63;;;-3.50;99.90;;;;;;4950416;28;20047;-68
2024/01/10 09:50:10;;;;;;;56.40;21.30;;;-3.50;99.90;;;;;;4953746;29;20055;-67
2024/01/10 09:52:44;;;;;;;58.35;20.50;;;-3.50;99.90;;;;;;4954113;29;20065;-67
2024/01/10 09:55:12;;;;;;;62.88;20.45;;;-3.40;99.90;;;;;;4949176;28;20135;-68
2024/01/10 09:57:40;;;;;;;53.80;20.05;;;-3.30;99.90;;;;;;4953815;29;20047;-68
2024/01/10 10:00:10;;;;;;;57.95;21.58;;;-3.10;99.90;;;;;;4945988;29;20070;-68
2024/01/10 10:02:39;;;;;;;57.92;21.00;;;-3.00;99.90;;;;;;4947407;28;20501;-68
2024/01/10 10:05:17;;;;;;;54.83;20.40;;;-2.80;99.90;;;;;;4946033;29;20345;-68
2024/01/10 10:07:50;;;;;;;58.50;20.52;;;-2.60;99.90;;;;;;4953564;29;20071;-68
2024/01/10 10:10:18;;;;;;;63.55;20.38;;;-2.50;99.90;;;;;;4952545;29;20412;-68
2024/01/10 10:12:46;;;;;;;47.55;19.17;;;-2.40;99.90;;;;;;4950779;29;20055;-68
2024/01/10 10:15:18;;;;;;;52.38;19.73;;;-2.40;99.90;;;;;;4953524;28;20075;-68
2024/01/10 10:17:47;;;;;;;52.75;19.45;;;-2.40;99.90;;;;;;4953351;29;20051;-68
2024/01/10 10:20:28;;;;;;;50.25;19.55;;;-2.30;99.90;;;;;;4938419;29;20050;-67
2024/01/10 10:23:06;;;;;;;50.42;20.85;;;-2.30;99.90;;;;;;4951910;29;20126;-68
2024/01/10 10:25:45;;;;;;;45.88;17.98;;;-2.30;99.90;;;;;;4952132;28;20047;-68
2024/01/10 10:28:11;;;;;;;50.28;18.58;;;-2.50;99.90;;;;;;4953528;29;20047;-67
2024/01/10 10:30:55;;;;;;;43.45;16.83;;;-2.40;99.90;;;;;;4951580;29;20047;-68
2024/01/10 10:33:22;;;;;;;44.35;16.98;;;-2.50;99.90;;;;;;4952981;29;20051;-68
2024/01/10 10:35:50;;;;;;;;;;;-2.50;99.90;;;;;;4953560;29;20511;-67
2024/01/10 10:38:22;;;;;;;42.00;16.05;;;-2.60;99.90;;;;;;4945496;29;19922;-68
2024/01/10 10:40:49;;;;;;;45.50;18.17;;;-2.60;99.90;;;;;;4953039;28;20074;-67
2024/01/10 10:43:19;;;;;;;42.08;16.88;;;-2.60;99.90;;;;;;4953214;29;20053;-67
2024/01/10 10:45:50;;;;;;;44.35;17.92;;;-2.60;99.90;;;;;;4944439;28;20047;-68
2024/01/10 10:48:21;;;;;;;47.13;17.45;;;-2.60;99.90;;;;;;4952739;29;20501;-68
2024/01/10 10:51:32;;;;;;;40.00;16.70;;;-2.50;99.90;;;;;;4952139;28;20444;-68
2024/01/10 10:53:59;;;;;;;45.90;17.17;;;-2.40;99.90;;;;;;4893324;29;20060;-68
2024/01/10 10:56:36;;;;;;;51.10;16.33;;;-2.40;99.90;;;;;;4940712;29;20055;-68
2024/01/10 10:59:04;;;;;;;30.48;11.65;;;-2.30;99.90;;;;;;4952869;29;20126;-67
2024/01/10 11:01:32;;;;;;;49.95;17.30;;;-2.30;99.90;;;;;;4952571;29;20039;-67
2024/01/10 11:03:59;;;;;;;39.15;16.55;;;-2.30;99.90;;;;;;4943675;28;20043;-67
2024/01/10 11:06:26;;;;;;;;;;;-2.20;99.90;;;;;;4953384;29;20127;-68
2024/01/10 11:09:05;;;;;;;39.42;15.13;;;-2.10;99.90;;;;;;4952939;29;19922;-68
2024/01/10 11:11:48;;;;;;;41.72;15.95;;;-2.10;99.90;;;;;;4945049;29;20058;-68
2024/01/10 11:14:18;;;;;;;46.90;17.00;;;-2.10;99.90;;;;;;4945337;28;20044;-68
2024/01/10 11:17:34;;;;;;;37.95;16.33;;;-2.20;99.90;;;;;;4952755;29;20118;-68
2024/01/10 11:20:28;;;;;;;40.03;15.35;;;-2.10;99.90;;;;;;4930669;29;20058;-68
2024/01/10 11:23:08;;;;;;;38.58;16.45;;;-2.00;99.90;;;;;;4944680;29;20497;-68
2024/01/10 11:25:36;;;;;;;42.03;15.63;;;-1.90;99.90;;;;;;4952976;28;20048;-68
2024/01/10 11:28:04;;;;;;;43.17;17.65;;;-1.90;99.90;;;;;;4950173;29;20043;-68
2024/01/10 11:30:41;;;;;;;34.90;14.25;;;-1.90;99.90;;;;;;4933722;29;20433;-68
2024/01/10 11:33:21;;;;;;;38.97;16.08;;;-1.80;99.90;;;;;;4951213;29;20046;-68
2024/01/10 11:36:13;;;;;;;42.60;16.35;;;-1.70;99.90;;;;;;4943104;28;20083;-68
2024/01/10 11:38:41;;;;;;;41.20;16.10;;;-1.60;99.90;;;;;;4948015;29;20165;-68
2024/01/10 11:41:10;;;;;;;42.80;15.05;;;-1.50;99.90;;;;;;4952427;29;20063;-68
2024/01/10 11:43:38;;;;;;;37.15;15.55;;;-1.50;99.90;;;;;;4944974;28;20118;-68
2024/01/10 11:46:06;;;;;;;36.10;15.02;;;-1.40;99.90;;;;;;4931785;29;20040;-68
2024/01/10 11:48:33;;;;;;;40.05;16.00;;;-1.30;99.90;;;;;;4946270;29;20071;-68
2024/01/10 11:51:00;;;;;;;47.60;18.25;;;-1.30;99.90;;;;;;4951717;29;20501;-68
2024/01/10 11:53:42;;;;;;;38.50;17.77;;;-1.30;99.90;;;;;;4952184;28;20071;-68
2024/01/10 11:56:11;;;;;;;52.72;19.52;;;-1.30;99.90;;;;;;4948520;29;20055;-68
2024/01/10 11:58:55;;;;;;;47.95;18.75;;;-1.20;99.90;;;;;;4944549;29;20122;-68
2024/01/10 12:01:23;;;;;;;42.97;18.00;;;-1.20;99.90;;;;;;4950474;28;20063;-68
2024/01/10 12:03:52;;;;;;;37.10;16.40;;;-1.10;99.90;;;;;;4955561;28;20523;-68
2024/01/10 12:06:39;;;;;;;37.35;16.52;;;-1.00;99.90;;;;;;4955707;28;20442;-68
2024/01/10 12:09:09;;;;;;;35.22;14.63;;;-1.00;99.90;;;;;;4928574;29;20044;-68
2024/01/10 12:11:36;;;;;;;35.00;16.20;;;-1.00;99.90;;;;;;4955666;29;20043;-68
2024/01/10 12:14:03;;;;;;;39.42;15.88;;;-1.10;99.90;;;;;;4938389;29;20492;-68
2024/01/10 12:16:29;;;;;;;44.97;16.58;;;-1.10;99.90;;;;;;4953966;29;20101;-68
2024/01/10 12:18:56;;;;;;;33.03;15.15;;;-1.10;99.90;;;;;;4955721;29;20050;-68
2024/01/10 12:21:23;;;;;;;35.97;14.07;;;-1.00;99.90;;;;;;4955576;29;20035;-68
2024/01/10 12:23:51;;;;;;;;;;;-0.90;99.90;;;;;;4956146;28;20039;-68
2024/01/10 12:26:19;;;;;;;31.80;13.65;;;-0.80;99.90;;;;;;4954077;28;19923;-68
2024/01/10 12:28:59;;;;;;;32.80;15.50;;;-0.80;99.90;;;;;;4955537;29;20051;-68
2024/01/10 12:31:29;;;;;;;32.90;14.18;;;-0.80;99.90;;;;;;4954796;29;20047;-68
2024/01/10 12:33:57;;;;;;;33.85;15.02;;;-0.80;99.90;;;;;;4949985;28;20559;-68
2024/01/10 12:36:24;;;;;;;29.17;13.05;;;-0.80;99.90;;;;;;4955585;29;20477;-68
2024/01/10 12:38:51;;;;;;;38.80;15.30;;;-0.80;99.90;;;;;;4955385;29;20043;-68